createdAt,value
2019-01-21T00:03:15.326Z,0
2019-01-21T00:13:29.968Z,0
2019-01-21T00:23:43.920Z,0
2019-01-21T00:33:59.228Z,0
2019-01-21T00:44:13.611Z,0
2019-01-21T00:54:27.642Z,0
2019-01-21T01:04:42.469Z,0
2019-01-21T01:14:57.132Z,0
2019-01-21T01:25:11.663Z,0
2019-01-21T01:35:26.826Z,0
2019-01-21T01:45:41.422Z,0
2019-01-21T01:55:56.781Z,0
2019-01-21T02:06:11.960Z,0
2019-01-21T02:16:27.199Z,0
2019-01-21T02:26:42.308Z,0
2019-01-21T02:36:56.525Z,0
2019-01-21T02:47:12.013Z,0
2019-01-21T02:57:26.387Z,0
2019-01-21T03:07:41.684Z,0
2019-01-21T03:17:55.436Z,0
2019-01-21T03:28:09.221Z,0
2019-01-21T03:38:24.551Z,0
2019-01-21T03:48:39.484Z,0
2019-01-21T03:58:54.570Z,0
2019-01-21T04:09:09.126Z,0
2019-01-21T04:19:23.749Z,0
2019-01-21T04:29:37.332Z,0
2019-01-21T04:39:52.852Z,0
2019-01-21T04:50:07.089Z,0
2019-01-21T05:00:22.026Z,0
2019-01-21T05:10:36.136Z,0
2019-01-21T05:20:49.892Z,0
2019-01-21T05:31:03.781Z,0
2019-01-21T05:41:18.353Z,0
2019-01-21T05:51:32.607Z,0
2019-01-21T06:01:47.817Z,0
2019-01-21T06:12:01.622Z,0
2019-01-21T06:22:15.480Z,0
2019-01-21T06:32:29.649Z,0
2019-01-21T06:42:44.408Z,0
2019-01-21T06:52:59.477Z,4
2019-01-21T07:03:13.718Z,24
2019-01-21T07:13:29.092Z,108
2019-01-21T07:23:44.470Z,312
2019-01-21T07:33:59.740Z,652
2019-01-21T07:44:14.283Z,1112
2019-01-21T07:54:28.164Z,1624
2019-01-21T08:04:42.355Z,2376
2019-01-21T08:14:57.695Z,2740
2019-01-21T08:25:12.089Z,3844
2019-01-21T08:35:26.384Z,3296
2019-01-21T08:45:41.178Z,3736
2019-01-21T08:55:55.118Z,4732
2019-01-21T09:06:08.886Z,7360
2019-01-21T09:16:22.792Z,7912
2019-01-21T09:26:36.846Z,10268
2019-01-21T09:36:51.795Z,11336
2019-01-21T09:47:06.878Z,13208
2019-01-21T09:57:22.330Z,15136
2019-01-21T10:07:36.281Z,16768
2019-01-21T10:17:50.444Z,18944
2019-01-21T10:28:05.938Z,21344
2019-01-21T10:38:20.607Z,21600
2019-01-21T10:48:35.331Z,21216
2019-01-21T10:58:49.131Z,21216
2019-01-21T11:09:03.790Z,20256
2019-01-21T11:19:17.609Z,20000
2019-01-21T11:29:31.539Z,20448
2019-01-21T11:39:46.173Z,19392
2019-01-21T11:50:01.607Z,19648
2019-01-21T12:00:16.204Z,19360
2019-01-21T12:10:30.882Z,19872
2019-01-21T12:20:45.745Z,19872
2019-01-21T12:31:01.550Z,19456
2019-01-21T12:41:15.593Z,18432
2019-01-21T12:51:30.672Z,18240
2019-01-21T13:01:44.877Z,17408
2019-01-21T13:11:59.416Z,17024
2019-01-21T13:22:14.157Z,15680
